Mullingar, Ireland
Current Conditions -  °F | °C
As of 4:00 AM on Sunday 21 Dec 2014 (Local Time) from EIME Reporting Station
Broken Clouds Broken Clouds  
Wind Chill: 36°   Ceiling: 3200
Heat Index: 45°   Visibility: 6mi
Dew Point: 41°   Wind: 23mph
Humidity: 87%   Direction: 210°SSW
Pressure: 30.21"   Gusts: NA
Location:  53.53°N, 7.34°W
Report Text: EIME 210400Z 21020KT 9999 BKN032 07/05 Q1023
Loading
Personal Weather Stations






























Interactive Weather Map New forecast layout! Learn more

10-Day Weather Forecast

Advertisements
Track Severe Weather on mobile